sensor_id;sensor_type;location;lat;lon;timestamp;pressure;altitude;pressure_sealevel;temperature;humidity
19890;BME280;10107;51.198;6.824;2022-10-26T00:03:34;-21605.03;;;10.90;100.00
19890;BME280;10107;51.198;6.824;2022-10-26T00:07:38;-21605.31;;;10.92;100.00
19890;BME280;10107;51.198;6.824;2022-10-26T00:11:40;-21605.72;;;10.93;100.00
19890;BME280;10107;51.198;6.824;2022-10-26T00:15:42;-21606.22;;;10.95;100.00
19890;BME280;10107;51.198;6.824;2022-10-26T00:19:43;-21606.91;;;10.98;100.00
19890;BME280;10107;51.198;6.824;2022-10-26T00:23:46;-21606.75;;;10.97;100.00
19890;BME280;10107;51.198;6.824;2022-10-26T00:27:48;-21606.50;;;10.96;100.00
19890;BME280;10107;51.198;6.824;2022-10-26T00:31:50;-21606.91;;;10.98;100.00
19890;BME280;10107;51.198;6.824;2022-10-26T00:35:51;-21606.75;;;10.97;100.00
19890;BME280;10107;51.198;6.824;2022-10-26T00:39:54;-21606.50;;;10.96;100.00
19890;BME280;10107;51.198;6.824;2022-10-26T00:43:57;-21605.84;;;10.94;100.00
19890;BME280;10107;51.198;6.824;2022-10-26T00:48:02;-21605.44;;;10.92;100.00
19890;BME280;10107;51.198;6.824;2022-10-26T00:52:07;-21604.38;;;10.88;100.00
19890;BME280;10107;51.198;6.824;2022-10-26T00:56:11;-21603.59;;;10.85;100.00
19890;BME280;10107;51.198;6.824;2022-10-26T01:00:13;-21602.41;;;10.80;100.00
19890;BME280;10107;51.198;6.824;2022-10-26T01:04:15;-21601.47;;;10.77;100.00
19890;BME280;10107;51.198;6.824;2022-10-26T01:08:17;-21601.72;;;10.78;100.00
19890;BME280;10107;51.198;6.824;2022-10-26T01:12:21;-21601.72;;;10.78;100.00
19890;BME280;10107;51.198;6.824;2022-10-26T01:16:37;-21602.13;;;10.79;100.00
19890;BME280;10107;51.198;6.824;2022-10-26T01:25:35;-21603.84;;;10.86;100.00
19890;BME280;10107;51.198;6.824;2022-10-26T01:29:52;-21605.19;;;10.91;100.00
19890;BME280;10107;51.198;6.824;2022-10-26T01:34:06;-21606.50;;;10.96;100.00
19890;BME280;10107;51.198;6.824;2022-10-26T01:38:15;-21608.34;;;11.03;100.00
19890;BME280;10107;51.198;6.824;2022-10-26T01:42:20;-21609.69;;;11.08;100.00
19890;BME280;10107;51.198;6.824;2022-10-26T01:46:25;-21611.13;;;11.14;100.00
19890;BME280;10107;51.198;6.824;2022-10-26T01:50:30;-21612.06;;;11.18;100.00
19890;BME280;10107;51.198;6.824;2022-10-26T01:54:34;-21612.31;;;11.19;100.00
19890;BME280;10107;51.198;6.824;2022-10-26T01:58:52;-21613.25;;;11.22;100.00
19890;BME280;10107;51.198;6.824;2022-10-26T02:03:00;-21614.44;;;11.27;100.00
19890;BME280;10107;51.198;6.824;2022-10-26T02:07:13;-21615.22;;;11.30;100.00
19890;BME280;10107;51.198;6.824;2022-10-26T02:11:26;-21616.28;;;11.34;100.00
19890;BME280;10107;51.198;6.824;2022-10-26T02:15:34;-21618.69;;;11.43;100.00
19890;BME280;10107;51.198;6.824;2022-10-26T02:19:42;-21620.00;;;11.48;100.00
19890;BME280;10107;51.198;6.824;2022-10-26T02:23:47;-21621.06;;;11.53;100.00
19890;BME280;10107;51.198;6.824;2022-10-26T02:27:54;-21621.84;;;11.56;100.00
19890;BME280;10107;51.198;6.824;2022-10-26T02:31:56;-21622.50;;;11.58;100.00
19890;BME280;10107;51.198;6.824;2022-10-26T02:36:01;-21624.38;;;11.65;100.00
19890;BME280;10107;51.198;6.824;2022-10-26T02:40:10;-21626.22;;;11.73;100.00
19890;BME280;10107;51.198;6.824;2022-10-26T02:44:17;-21627.66;;;11.78;100.00
19890;BME280;10107;51.198;6.824;2022-10-26T02:48:23;-21628.47;;;11.81;100.00
19890;BME280;10107;51.198;6.824;2022-10-26T02:52:32;-21629.38;;;11.85;100.00
19890;BME280;10107;51.198;6.824;2022-10-26T02:56:43;-21630.19;;;11.88;100.00
19890;BME280;10107;51.198;6.824;2022-10-26T03:00:47;-21631.09;;;11.92;100.00
19890;BME280;10107;51.198;6.824;2022-10-26T03:04:50;-21632.03;;;11.95;100.00
19890;BME280;10107;51.198;6.824;2022-10-26T03:08:51;-21632.56;;;11.97;100.00
19890;BME280;10107;51.198;6.824;2022-10-26T03:12:54;-21632.97;;;11.99;100.00
19890;BME280;10107;51.198;6.824;2022-10-26T03:16:56;-21633.63;;;12.01;100.00
19890;BME280;10107;51.198;6.824;2022-10-26T03:20:58;-21634.28;;;12.04;100.00
19890;BME280;10107;51.198;6.824;2022-10-26T03:24:59;-21636.00;;;12.11;100.00
19890;BME280;10107;51.198;6.824;2022-10-26T03:29:03;-21637.31;;;12.16;100.00
19890;BME280;10107;51.198;6.824;2022-10-26T03:33:04;-21637.84;;;12.18;100.00
19890;BME280;10107;51.198;6.824;2022-10-26T03:37:06;-21638.63;;;12.21;100.00
19890;BME280;10107;51.198;6.824;2022-10-26T03:41:08;-21639.69;;;12.25;100.00
19890;BME280;10107;51.198;6.824;2022-10-26T03:45:11;-21640.63;;;12.28;100.00
19890;BME280;10107;51.198;6.824;2022-10-26T03:49:12;-21641.28;;;12.31;100.00
19890;BME280;10107;51.198;6.824;2022-10-26T03:53:14;-21642.06;;;12.34;100.00
19890;BME280;10107;51.198;6.824;2022-10-26T03:57:16;-21643.66;;;12.40;100.00
19890;BME280;10107;51.198;6.824;2022-10-26T04:01:19;-21646.31;;;12.51;100.00
19890;BME280;10107;51.198;6.824;2022-10-26T04:05:21;-21648.69;;;12.60;100.00
19890;BME280;10107;51.198;6.824;2022-10-26T04:09:23;-21649.47;;;12.63;100.00
19890;BME280;10107;51.198;6.824;2022-10-26T04:13:25;-21652.09;;;12.73;100.00
19890;BME280;10107;51.198;6.824;2022-10-26T04:17:28;-21652.38;;;12.74;100.00
19890;BME280;10107;51.198;6.824;2022-10-26T04:21:29;-21652.50;;;12.75;100.00
19890;BME280;10107;51.198;6.824;2022-10-26T04:25:32;-21652.78;;;12.76;100.00
19890;BME280;10107;51.198;6.824;2022-10-26T04:29:34;-21653.28;;;12.78;100.00
19890;BME280;10107;51.198;6.824;2022-10-26T04:33:37;-21653.97;;;12.80;100.00
19890;BME280;10107;51.198;6.824;2022-10-26T04:37:38;-21654.22;;;12.81;100.00
19890;BME280;10107;51.198;6.824;2022-10-26T04:41:40;-21654.63;;;12.83;100.00
19890;BME280;10107;51.198;6.824;2022-10-26T04:45:42;-21656.34;;;12.90;100.00
19890;BME280;10107;51.198;6.824;2022-10-26T04:49:45;-21657.53;;;12.94;100.00
19890;BME280;10107;51.198;6.824;2022-10-26T04:53:46;-21658.97;;;13.00;100.00
19890;BME280;10107;51.198;6.824;2022-10-26T04:57:48;-21659.09;;;13.00;100.00
19890;BME280;10107;51.198;6.824;2022-10-26T05:01:50;-21660.28;;;13.05;100.00
19890;BME280;10107;51.198;6.824;2022-10-26T05:05:53;-21658.31;;;12.97;100.00
19890;BME280;10107;51.198;6.824;2022-10-26T05:09:58;-21657.66;;;12.95;100.00
19890;BME280;10107;51.198;6.824;2022-10-26T05:13:59;-21657.78;;;12.95;100.00
19890;BME280;10107;51.198;6.824;2022-10-26T05:18:03;-21659.25;;;13.01;100.00
19890;BME280;10107;51.198;6.824;2022-10-26T05:22:07;-21660.69;;;13.06;100.00
19890;BME280;10107;51.198;6.824;2022-10-26T05:26:08;-21661.09;;;13.08;100.00
19890;BME280;10107;51.198;6.824;2022-10-26T05:30:11;-21661.47;;;13.10;100.00
19890;BME280;10107;51.198;6.824;2022-10-26T05:34:12;-21662.94;;;13.15;100.00
19890;BME280;10107;51.198;6.824;2022-10-26T05:38:16;-21662.66;;;13.14;100.00
19890;BME280;10107;51.198;6.824;2022-10-26T05:42:18;-21663.31;;;13.17;100.00
19890;BME280;10107;51.198;6.824;2022-10-26T05:46:19;-21663.06;;;13.16;100.00
19890;BME280;10107;51.198;6.824;2022-10-26T05:50:21;-21663.72;;;13.18;100.00
19890;BME280;10107;51.198;6.824;2022-10-26T05:54:24;-21663.72;;;13.18;100.00
19890;BME280;10107;51.198;6.824;2022-10-26T05:58:26;-21663.31;;;13.17;100.00
19890;BME280;10107;51.198;6.824;2022-10-26T06:02:32;-21663.06;;;13.16;100.00
19890;BME280;10107;51.198;6.824;2022-10-26T06:06:43;-21663.06;;;13.16;100.00
19890;BME280;10107;51.198;6.824;2022-10-26T06:10:47;-21663.47;;;13.17;100.00
19890;BME280;10107;51.198;6.824;2022-10-26T06:14:50;-21662.94;;;13.15;100.00
19890;BME280;10107;51.198;6.824;2022-10-26T06:18:59;-21662.94;;;13.15;100.00
19890;BME280;10107;51.198;6.824;2022-10-26T06:23:15;-21662.53;;;13.14;100.00
19890;BME280;10107;51.198;6.824;2022-10-26T06:27:29;-21662.78;;;13.15;100.00
19890;BME280;10107;51.198;6.824;2022-10-26T06:31:35;-21664.25;;;13.20;100.00
19890;BME280;10107;51.198;6.824;2022-10-26T06:35:45;-21666.34;;;13.28;100.00
19890;BME280;10107;51.198;6.824;2022-10-26T06:39:50;-21667.69;;;13.34;100.00
19890;BME280;10107;51.198;6.824;2022-10-26T06:43:55;-21669.53;;;13.41;100.00
19890;BME280;10107;51.198;6.824;2022-10-26T06:48:01;-21670.59;;;13.45;100.00
19890;BME280;10107;51.198;6.824;2022-10-26T06:52:10;-21672.16;;;13.51;100.00
19890;BME280;10107;51.198;6.824;2022-10-26T06:56:14;-21672.97;;;13.54;100.00
19890;BME280;10107;51.198;6.824;2022-10-26T07:00:20;-21674.13;;;13.59;100.00
19890;BME280;10107;51.198;6.824;2022-10-26T07:04:22;-21675.47;;;13.64;100.00
19890;BME280;10107;51.198;6.824;2022-10-26T07:08:24;-21677.56;;;13.72;100.00
19890;BME280;10107;51.198;6.824;2022-10-26T07:12:25;-21681.25;;;13.86;100.00
19890;BME280;10107;51.198;6.824;2022-10-26T07:16:28;-21688.25;;;14.14;100.00
19890;BME280;10107;51.198;6.824;2022-10-26T07:20:31;-21695.09;;;14.40;100.00
19890;BME280;10107;51.198;6.824;2022-10-26T07:24:35;-21700.63;;;14.62;100.00
19890;BME280;10107;51.198;6.824;2022-10-26T07:28:37;-21708.38;;;14.92;99.16
19890;BME280;10107;51.198;6.824;2022-10-26T07:32:40;-21722.19;;;15.46;95.97
19890;BME280;10107;51.198;6.824;2022-10-26T07:36:42;-21787.09;;;18.00;80.37
19890;BME280;10107;51.198;6.824;2022-10-26T07:40:44;-21761.94;;;17.01;83.79
19890;BME280;10107;51.198;6.824;2022-10-26T07:44:46;-21744.50;;;16.33;87.86
19890;BME280;10107;51.198;6.824;2022-10-26T07:48:49;-21734.66;;;15.95;90.94
19890;BME280;10107;51.198;6.824;2022-10-26T07:52:52;-21757.75;;;16.85;88.02
19890;BME280;10107;51.198;6.824;2022-10-26T07:56:54;-21845.19;;;20.28;69.79
19890;BME280;10107;51.198;6.824;2022-10-26T08:00:55;-21900.22;;;22.45;58.90
19890;BME280;10107;51.198;6.824;2022-10-26T08:04:58;-21868.91;;;21.22;63.26
19890;BME280;10107;51.198;6.824;2022-10-26T08:09:00;-22018.97;;;27.17;45.25
19890;BME280;10107;51.198;6.824;2022-10-26T08:13:01;-22114.31;;;30.98;35.88
19890;BME280;10107;51.198;6.824;2022-10-26T08:17:03;-22143.88;;;32.17;32.73
19890;BME280;10107;51.198;6.824;2022-10-26T08:21:09;-22139.69;;;32.01;31.58
19890;BME280;10107;51.198;6.824;2022-10-26T08:25:12;-22127.81;;;31.53;32.69
19890;BME280;10107;51.198;6.824;2022-10-26T08:29:14;-22092.06;;;30.09;35.37
19890;BME280;10107;51.198;6.824;2022-10-26T08:33:15;-22027.72;;;27.52;39.20
19890;BME280;10107;51.198;6.824;2022-10-26T08:37:18;-21928.47;;;23.57;48.75
19890;BME280;10107;51.198;6.824;2022-10-26T08:41:26;-21896.84;;;22.32;53.33
19890;BME280;10107;51.198;6.824;2022-10-26T08:45:30;-21845.97;;;20.31;61.14
19890;BME280;10107;51.198;6.824;2022-10-26T08:49:39;-21804.22;;;18.67;68.12
19890;BME280;10107;51.198;6.824;2022-10-26T08:53:49;-21780.81;;;17.75;74.26
19890;BME280;10107;51.198;6.824;2022-10-26T08:57:53;-21784.09;;;17.88;77.07
19890;BME280;10107;51.198;6.824;2022-10-26T09:01:55;-21838.94;;;20.04;65.46
19890;BME280;10107;51.198;6.824;2022-10-26T09:06:08;-21825.13;;;19.49;67.22
19890;BME280;10107;51.198;6.824;2022-10-26T09:10:26;-21809.72;;;18.89;70.84
19890;BME280;10107;51.198;6.824;2022-10-26T09:14:40;-21792.97;;;18.23;73.32
19890;BME280;10107;51.198;6.824;2022-10-26T09:18:52;-21835.44;;;19.90;70.25
19890;BME280;10107;51.198;6.824;2022-10-26T09:22:59;-21879.69;;;21.64;60.47
19890;BME280;10107;51.198;6.824;2022-10-26T09:27:10;-21918.50;;;23.18;55.60
19890;BME280;10107;51.198;6.824;2022-10-26T09:31:16;-21946.47;;;24.28;51.18
19890;BME280;10107;51.198;6.824;2022-10-26T09:35:22;-21954.38;;;24.60;50.37
19890;BME280;10107;51.198;6.824;2022-10-26T09:39:30;-21944.16;;;24.19;50.60
19890;BME280;10107;51.198;6.824;2022-10-26T09:43:39;-21947.13;;;24.31;50.24
19890;BME280;10107;51.198;6.824;2022-10-26T09:47:45;-21964.19;;;24.99;47.93
19890;BME280;10107;51.198;6.824;2022-10-26T09:51:51;-21968.84;;;25.17;47.70
19890;BME280;10107;51.198;6.824;2022-10-26T09:56:00;-21959.28;;;24.79;47.31
19890;BME280;10107;51.198;6.824;2022-10-26T10:00:05;-21976.97;;;25.49;47.89
19890;BME280;10107;51.198;6.824;2022-10-26T10:04:09;-21979.03;;;25.58;45.72
19890;BME280;10107;51.198;6.824;2022-10-26T10:08:19;-21972.19;;;25.31;46.73
19890;BME280;10107;51.198;6.824;2022-10-26T10:12:21;-21980.31;;;25.63;46.21
19890;BME280;10107;51.198;6.824;2022-10-26T10:16:24;-21993.34;;;26.15;45.60
19890;BME280;10107;51.198;6.824;2022-10-26T10:20:30;-22001.72;;;26.48;43.95
19890;BME280;10107;51.198;6.824;2022-10-26T10:24:34;-21999.53;;;26.39;44.30
19890;BME280;10107;51.198;6.824;2022-10-26T10:28:36;-22009.19;;;26.78;43.49
19890;BME280;10107;51.198;6.824;2022-10-26T10:32:39;-21995.94;;;26.25;44.58
19890;BME280;10107;51.198;6.824;2022-10-26T10:36:42;-21992.44;;;26.11;45.50
19890;BME280;10107;51.198;6.824;2022-10-26T10:40:49;-22008.16;;;26.74;44.06
19890;BME280;10107;51.198;6.824;2022-10-26T10:44:54;-21998.13;;;26.34;44.54
19890;BME280;10107;51.198;6.824;2022-10-26T10:49:03;-22015.50;;;27.03;44.05
19890;BME280;10107;51.198;6.824;2022-10-26T10:53:16;-22024.38;;;27.38;43.41
19890;BME280;10107;51.198;6.824;2022-10-26T10:57:24;-22005.06;;;26.61;44.92
19890;BME280;10107;51.198;6.824;2022-10-26T11:01:30;-22005.72;;;26.64;45.21
19890;BME280;10107;51.198;6.824;2022-10-26T11:05:59;-22006.09;;;26.65;45.65
19890;BME280;10107;51.198;6.824;2022-10-26T11:10:03;-22013.44;;;26.95;45.00
19890;BME280;10107;51.198;6.824;2022-10-26T11:14:08;-22033.22;;;27.74;45.04
19890;BME280;10107;51.198;6.824;2022-10-26T11:18:15;-22046.47;;;28.27;43.45
19890;BME280;10107;51.198;6.824;2022-10-26T11:22:23;-22042.88;;;28.12;42.75
19890;BME280;10107;51.198;6.824;2022-10-26T11:26:32;-22053.00;;;28.53;43.11
19890;BME280;10107;51.198;6.824;2022-10-26T11:30:36;-22035.69;;;27.83;43.13
19890;BME280;10107;51.198;6.824;2022-10-26T11:34:47;-22041.84;;;28.08;42.66
19890;BME280;10107;51.198;6.824;2022-10-26T11:38:56;-22031.06;;;27.65;43.87
19890;BME280;10107;51.198;6.824;2022-10-26T11:43:07;-22034.91;;;27.80;43.90
19890;BME280;10107;51.198;6.824;2022-10-26T11:47:15;-22023.22;;;27.34;44.90
19890;BME280;10107;51.198;6.824;2022-10-26T11:51:30;-22010.88;;;26.84;46.72
19890;BME280;10107;51.198;6.824;2022-10-26T11:55:36;-21997.34;;;26.31;48.74
19890;BME280;10107;51.198;6.824;2022-10-26T11:59:43;-21969.88;;;25.21;50.31
19890;BME280;10107;51.198;6.824;2022-10-26T12:03:49;-21944.16;;;24.19;54.48
19890;BME280;10107;51.198;6.824;2022-10-26T12:07:55;-21920.97;;;23.27;56.10
19890;BME280;10107;51.198;6.824;2022-10-26T12:12:03;-21905.66;;;22.67;58.96
19890;BME280;10107;51.198;6.824;2022-10-26T12:16:14;-21900.88;;;22.48;60.09
19890;BME280;10107;51.198;6.824;2022-10-26T12:20:47;-21896.44;;;22.30;60.41
19890;BME280;10107;51.198;6.824;2022-10-26T12:25:04;-21894.13;;;22.21;61.49
19890;BME280;10107;51.198;6.824;2022-10-26T12:29:36;-21893.22;;;22.18;61.98
19890;BME280;10107;51.198;6.824;2022-10-26T12:33:48;-21896.19;;;22.29;61.88
19890;BME280;10107;51.198;6.824;2022-10-26T12:37:50;-21895.16;;;22.25;62.51
19890;BME280;10107;51.198;6.824;2022-10-26T12:41:55;-21892.16;;;22.13;62.76
19890;BME280;10107;51.198;6.824;2022-10-26T12:50:43;-21883.59;;;21.80;64.26
19890;BME280;10107;51.198;6.824;2022-10-26T12:54:54;-21881.50;;;21.71;65.03
19890;BME280;10107;51.198;6.824;2022-10-26T12:59:19;-21881.50;;;21.71;64.92
19890;BME280;10107;51.198;6.824;2022-10-26T13:03:31;-21880.75;;;21.68;64.97
19890;BME280;10107;51.198;6.824;2022-10-26T13:07:37;-21880.34;;;21.67;64.98
19890;BME280;10107;51.198;6.824;2022-10-26T13:11:45;-21879.19;;;21.62;64.63
19890;BME280;10107;51.198;6.824;2022-10-26T13:15:52;-21878.13;;;21.58;64.96
19890;BME280;10107;51.198;6.824;2022-10-26T13:19:56;-21878.00;;;21.58;64.95
19890;BME280;10107;51.198;6.824;2022-10-26T13:24:01;-21875.66;;;21.48;65.51
19890;BME280;10107;51.198;6.824;2022-10-26T13:28:06;-21874.22;;;21.43;64.74
19890;BME280;10107;51.198;6.824;2022-10-26T13:32:08;-21872.28;;;21.35;65.58
19890;BME280;10107;51.198;6.824;2022-10-26T13:36:17;-21873.31;;;21.39;65.75
19890;BME280;10107;51.198;6.824;2022-10-26T13:40:24;-21874.22;;;21.43;65.51
19890;BME280;10107;51.198;6.824;2022-10-26T13:44:30;-21871.63;;;21.32;65.09
19890;BME280;10107;51.198;6.824;2022-10-26T13:48:38;-21869.16;;;21.23;65.94
19890;BME280;10107;51.198;6.824;2022-10-26T13:52:42;-21866.03;;;21.10;65.85
19890;BME280;10107;51.198;6.824;2022-10-26T13:56:58;-21863.97;;;21.02;66.22
19890;BME280;10107;51.198;6.824;2022-10-26T14:01:11;-21860.84;;;20.90;67.34
19890;BME280;10107;51.198;6.824;2022-10-26T14:05:15;-21859.28;;;20.84;66.05
19890;BME280;10107;51.198;6.824;2022-10-26T14:09:19;-21859.66;;;20.85;66.40
19890;BME280;10107;51.198;6.824;2022-10-26T14:13:23;-21858.22;;;20.80;65.64
19890;BME280;10107;51.198;6.824;2022-10-26T14:17:25;-21854.59;;;20.65;66.05
19890;BME280;10107;51.198;6.824;2022-10-26T14:21:27;-21851.44;;;20.53;66.79
19890;BME280;10107;51.198;6.824;2022-10-26T14:25:29;-21849.88;;;20.47;66.50
19890;BME280;10107;51.198;6.824;2022-10-26T14:29:36;-21848.84;;;20.43;66.41
19890;BME280;10107;51.198;6.824;2022-10-26T14:33:38;-21846.50;;;20.33;66.85
19890;BME280;10107;51.198;6.824;2022-10-26T14:37:43;-21846.50;;;20.33;67.47
19890;BME280;10107;51.198;6.824;2022-10-26T14:41:47;-21845.72;;;20.30;67.88
19890;BME280;10107;51.198;6.824;2022-10-26T14:45:51;-21843.78;;;20.23;68.14
19890;BME280;10107;51.198;6.824;2022-10-26T14:49:54;-21842.59;;;20.18;68.67
19890;BME280;10107;51.198;6.824;2022-10-26T14:53:58;-21841.03;;;20.12;69.23
19890;BME280;10107;51.198;6.824;2022-10-26T14:58:13;-21838.28;;;20.01;69.69
19890;BME280;10107;51.198;6.824;2022-10-26T15:02:18;-21835.44;;;19.90;70.34
19890;BME280;10107;51.198;6.824;2022-10-26T15:06:28;-21833.72;;;19.83;70.74
19890;BME280;10107;51.198;6.824;2022-10-26T15:10:46;-21831.25;;;19.73;71.29
19890;BME280;10107;51.198;6.824;2022-10-26T15:14:49;-21827.34;;;19.58;72.11
19890;BME280;10107;51.198;6.824;2022-10-26T15:18:55;-21823.94;;;19.45;73.03
19890;BME280;10107;51.198;6.824;2022-10-26T15:23:00;-21821.59;;;19.35;72.95
19890;BME280;10107;51.198;6.824;2022-10-26T15:27:02;-21817.94;;;19.21;73.85
19890;BME280;10107;51.198;6.824;2022-10-26T15:31:21;-21812.59;;;19.00;75.21
19890;BME280;10107;51.198;6.824;2022-10-26T15:35:31;-21807.88;;;18.82;77.01
19890;BME280;10107;51.198;6.824;2022-10-26T15:39:32;-21804.09;;;18.67;78.55
19890;BME280;10107;51.198;6.824;2022-10-26T15:43:34;-21801.34;;;18.56;78.64
19890;BME280;10107;51.198;6.824;2022-10-26T15:47:35;-21798.34;;;18.44;79.95
19890;BME280;10107;51.198;6.824;2022-10-26T15:51:39;-21793.25;;;18.24;80.70
19890;BME280;10107;51.198;6.824;2022-10-26T15:55:41;-21786.69;;;17.98;82.14
19890;BME280;10107;51.198;6.824;2022-10-26T15:59:42;-21779.25;;;17.69;84.37
19890;BME280;10107;51.198;6.824;2022-10-26T16:03:44;-21772.31;;;17.42;87.07
19890;BME280;10107;51.198;6.824;2022-10-26T16:07:47;-21765.09;;;17.14;90.05
19890;BME280;10107;51.198;6.824;2022-10-26T16:11:49;-21758.94;;;16.90;90.97
19890;BME280;10107;51.198;6.824;2022-10-26T16:15:51;-21753.03;;;16.67;92.61
19890;BME280;10107;51.198;6.824;2022-10-26T16:19:52;-21748.06;;;16.47;94.40
19890;BME280;10107;51.198;6.824;2022-10-26T16:23:55;-21744.78;;;16.34;94.94
19890;BME280;10107;51.198;6.824;2022-10-26T16:27:57;-21741.22;;;16.20;95.00
19890;BME280;10107;51.198;6.824;2022-10-26T16:31:59;-21737.81;;;16.07;95.60
19890;BME280;10107;51.198;6.824;2022-10-26T16:36:02;-21733.75;;;15.91;95.93
19890;BME280;10107;51.198;6.824;2022-10-26T16:40:07;-21730.59;;;15.79;97.02
19890;BME280;10107;51.198;6.824;2022-10-26T16:44:10;-21729.81;;;15.76;96.77
19890;BME280;10107;51.198;6.824;2022-10-26T16:48:12;-21728.34;;;15.70;97.44
19890;BME280;10107;51.198;6.824;2022-10-26T16:52:15;-21726.66;;;15.63;97.10
19890;BME280;10107;51.198;6.824;2022-10-26T16:56:20;-21724.28;;;15.54;98.10
19890;BME280;10107;51.198;6.824;2022-10-26T17:00:22;-21721.41;;;15.43;98.72
19890;BME280;10107;51.198;6.824;2022-10-26T17:04:24;-21720.47;;;15.39;98.76
19890;BME280;10107;51.198;6.824;2022-10-26T17:08:26;-21719.16;;;15.34;98.35
19890;BME280;10107;51.198;6.824;2022-10-26T17:12:30;-21717.72;;;15.29;99.59
19890;BME280;10107;51.198;6.824;2022-10-26T17:16:31;-21716.28;;;15.23;100.00
19890;BME280;10107;51.198;6.824;2022-10-26T17:20:34;-21715.22;;;15.19;100.00
19890;BME280;10107;51.198;6.824;2022-10-26T17:24:35;-21714.94;;;15.18;100.00
19890;BME280;10107;51.198;6.824;2022-10-26T17:28:39;-21715.22;;;15.19;100.00
19890;BME280;10107;51.198;6.824;2022-10-26T17:32:40;-21715.34;;;15.19;100.00
19890;BME280;10107;51.198;6.824;2022-10-26T17:36:42;-21714.69;;;15.17;100.00
19890;BME280;10107;51.198;6.824;2022-10-26T17:40:43;-21715.22;;;15.19;100.00
19890;BME280;10107;51.198;6.824;2022-10-26T17:44:46;-21715.09;;;15.18;100.00
19890;BME280;10107;51.198;6.824;2022-10-26T17:48:52;-21713.63;;;15.13;100.00
19890;BME280;10107;51.198;6.824;2022-10-26T17:52:54;-21712.97;;;15.10;100.00
19890;BME280;10107;51.198;6.824;2022-10-26T17:56:56;-21712.31;;;15.08;100.00
19890;BME280;10107;51.198;6.824;2022-10-26T18:01:00;-21709.81;;;14.98;100.00
19890;BME280;10107;51.198;6.824;2022-10-26T18:05:03;-21706.94;;;14.87;100.00
19890;BME280;10107;51.198;6.824;2022-10-26T18:09:05;-21703.50;;;14.73;100.00
19890;BME280;10107;51.198;6.824;2022-10-26T18:13:07;-21700.75;;;14.62;100.00
19890;BME280;10107;51.198;6.824;2022-10-26T18:17:10;-21699.31;;;14.57;100.00
19890;BME280;10107;51.198;6.824;2022-10-26T18:21:12;-21696.94;;;14.48;100.00
19890;BME280;10107;51.198;6.824;2022-10-26T18:25:15;-21694.56;;;14.38;100.00
19890;BME280;10107;51.198;6.824;2022-10-26T18:29:17;-21693.78;;;14.35;100.00
19890;BME280;10107;51.198;6.824;2022-10-26T18:33:20;-21691.78;;;14.27;100.00
19890;BME280;10107;51.198;6.824;2022-10-26T18:37:22;-21689.56;;;14.19;100.00
19890;BME280;10107;51.198;6.824;2022-10-26T18:41:26;-21687.44;;;14.11;100.00
19890;BME280;10107;51.198;6.824;2022-10-26T18:45:28;-21686.78;;;14.08;100.00
19890;BME280;10107;51.198;6.824;2022-10-26T18:49:31;-21686.66;;;14.07;100.00
19890;BME280;10107;51.198;6.824;2022-10-26T18:53:33;-21686.91;;;14.09;100.00
19890;BME280;10107;51.198;6.824;2022-10-26T18:57:35;-21685.22;;;14.02;100.00
19890;BME280;10107;51.198;6.824;2022-10-26T19:01:38;-21682.56;;;13.92;100.00
19890;BME280;10107;51.198;6.824;2022-10-26T19:05:42;-21679.03;;;13.78;100.00
19890;BME280;10107;51.198;6.824;2022-10-26T19:09:44;-21675.47;;;13.64;100.00
19890;BME280;10107;51.198;6.824;2022-10-26T19:13:46;-21673.75;;;13.57;100.00
19890;BME280;10107;51.198;6.824;2022-10-26T19:17:49;-21671.50;;;13.49;100.00
19890;BME280;10107;51.198;6.824;2022-10-26T19:21:52;-21669.78;;;13.42;100.00
19890;BME280;10107;51.198;6.824;2022-10-26T19:25:54;-21669.41;;;13.40;100.00
19890;BME280;10107;51.198;6.824;2022-10-26T19:29:56;-21668.59;;;13.37;100.00
19890;BME280;10107;51.198;6.824;2022-10-26T19:33:58;-21666.63;;;13.30;100.00
19890;BME280;10107;51.198;6.824;2022-10-26T19:38:01;-21664.91;;;13.23;100.00
19890;BME280;10107;51.198;6.824;2022-10-26T19:42:03;-21662.94;;;13.15;100.00
19890;BME280;10107;51.198;6.824;2022-10-26T19:46:07;-21661.75;;;13.11;100.00
19890;BME280;10107;51.198;6.824;2022-10-26T19:50:09;-21660.16;;;13.04;100.00
19890;BME280;10107;51.198;6.824;2022-10-26T19:54:12;-21658.44;;;12.98;100.00
19890;BME280;10107;51.198;6.824;2022-10-26T19:58:14;-21657.00;;;12.92;100.00
19890;BME280;10107;51.198;6.824;2022-10-26T20:02:16;-21655.41;;;12.86;100.00
19890;BME280;10107;51.198;6.824;2022-10-26T20:06:18;-21653.97;;;12.80;100.00
19890;BME280;10107;51.198;6.824;2022-10-26T20:10:22;-21652.91;;;12.76;100.00
19890;BME280;10107;51.198;6.824;2022-10-26T20:14:23;-21653.28;;;12.78;100.00
19890;BME280;10107;51.198;6.824;2022-10-26T20:18:25;-21654.75;;;12.83;100.00
19890;BME280;10107;51.198;6.824;2022-10-26T20:22:28;-21655.28;;;12.85;100.00
19890;BME280;10107;51.198;6.824;2022-10-26T20:26:31;-21656.34;;;12.90;100.00
19890;BME280;10107;51.198;6.824;2022-10-26T20:30:33;-21657.25;;;12.93;100.00
19890;BME280;10107;51.198;6.824;2022-10-26T20:34:35;-21656.06;;;12.88;100.00
19890;BME280;10107;51.198;6.824;2022-10-26T20:38:37;-21655.53;;;12.86;100.00
19890;BME280;10107;51.198;6.824;2022-10-26T20:42:41;-21654.34;;;12.82;100.00
19890;BME280;10107;51.198;6.824;2022-10-26T20:46:44;-21652.63;;;12.75;100.00
19890;BME280;10107;51.198;6.824;2022-10-26T20:50:49;-21650.78;;;12.68;100.00
19890;BME280;10107;51.198;6.824;2022-10-26T20:54:59;-21649.06;;;12.61;100.00
19890;BME280;10107;51.198;6.824;2022-10-26T20:59:07;-21647.34;;;12.55;100.00
19890;BME280;10107;51.198;6.824;2022-10-26T21:03:13;-21645.38;;;12.47;100.00
19890;BME280;10107;51.198;6.824;2022-10-26T21:07:14;-21643.41;;;12.39;100.00
19890;BME280;10107;51.198;6.824;2022-10-26T21:11:17;-21641.69;;;12.33;100.00
19890;BME280;10107;51.198;6.824;2022-10-26T21:15:20;-21639.56;;;12.24;100.00
19890;BME280;10107;51.198;6.824;2022-10-26T21:19:22;-21638.63;;;12.21;100.00
19890;BME280;10107;51.198;6.824;2022-10-26T21:23:28;-21637.19;;;12.15;100.00